Laida — EAVE — position and weather

sailwx.info

Track history (hours):
 
Tides and Currents Weather Stations Pressure Air Temp Water Temp Dewpoint Dewpoint Depression Visibility Wind Speed Wind Dir Waves Ship Positions

Laida

Last reported at 2018-Feb-25 14:25 UTC. Time now 2018-Feb-25 18:00 UTC.
Position N 38°17' W 009°58'.

Length 100 m; draft 6.2 m.

Type: Cargo ship. MMSI: 224509000.

Date/timePositionNaut miles runAvg speedWind from/ knotsBaromVisibWave heightAir tempDewpointWater temp
2018-Feb-25 14:25N 38°17' W 009°58'410.1
2018-Feb-25 14:00N 38°21' W 009°59'510.3
2018-Feb-25 13:30N 38°26' W 010°01'510.2
2018-Feb-25 12:59N 38°31' W 010°02'1110.1
2018-Feb-25 11:55N 38°42' W 010°05'1210.3
2018-Feb-25 10:47N 38°54' W 010°05'310.6
2018-Feb-25 10:31N 38°56' W 010°05'611.0
2018-Feb-25 10:00N 39°02' W 010°05'610.8
2018-Feb-25 09:29N 39°08' W 010°05'510.7
2018-Feb-25 09:01N 39°13' W 010°05'611.1
2018-Feb-25 08:30N 39°18' W 010°05'  
2018-Feb-22 05:08N 49°58' W 002°57'212.2
2018-Feb-22 04:57N 49°59' W 002°54'5010.1
2018-Feb-22 00:03N 50°13' W 001°40'1 7.5
2018-Feb-21 23:59N 50°13' W 001°39'4 7.4
2018-Feb-21 23:30N 50°14' W 001°34'4 7.4
2018-Feb-21 22:59N 50°15' W 001°28'4610.5
2018-Feb-21 18:38N 50°28' W 000°20'612.0
2018-Feb-21 18:05N 50°30' W 000°10'112.0
2018-Feb-21 17:59N 50°31' W 000°08'611.9
2018-Feb-21 17:30N 50°32' E 000°00'611.6
2018-Feb-21 16:59N 50°34' E 000°09'611.4
2018-Feb-21 16:29N 50°36' E 000°18'511.1
2018-Feb-21 16:01N 50°37' E 000°26'510.6
2018-Feb-21 15:30N 50°39' E 000°34'510.2
2018-Feb-21 15:00N 50°42' E 000°40'5 9.8
2018-Feb-21 14:31N 50°44' E 000°47'5 9.6
2018-Feb-21 14:00N 50°47' E 000°53'5 9.5
2018-Feb-21 13:30N 50°50' E 000°59'1110.0
2018-Feb-21 12:22N 50°57' E 001°13'911.7
2018-Feb-21 11:37N 51°03' E 001°24'112.7
2018-Feb-21 11:30N 51°03' E 001°26'1528.9
2018-Feb-21 10:59N 51°13' E 001°44'2 3.1
2018-Feb-21 10:30N 51°12' E 001°42'612.5
2018-Feb-21 10:00N 51°17' E 001°48'612.0
2018-Feb-21 09:30N 51°23' E 001°52'611.1
2018-Feb-21 09:00N 51°28' E 001°56'510.7
2018-Feb-21 08:30N 51°32' E 002°02'510.1
2018-Feb-21 07:59N 51°36' E 002°07'5 9.7
2018-Feb-21 07:28N 51°39' E 002°12'73 9.5
2018-Feb-20 23:48N 52°52' E 002°01'310.7
2018-Feb-20 23:30N 52°54' E 001°58'611.6
2018-Feb-20 23:00N 52°57' E 001°50'611.7
2018-Feb-20 22:30N 53°01' E 001°42'611.9
2018-Feb-20 22:00N 53°04' E 001°34'611.9
2018-Feb-20 21:30N 53°08' E 001°27'611.6
2018-Feb-20 21:00N 53°12' E 001°19'25210.3
2018-Feb-19 20:36N 56°58' W 001°53'1 9.1
2018-Feb-19 20:27N 56°60' W 001°54'4 9.1
2018-Feb-19 19:58N 57°04' W 001°57'5 9.1
2018-Feb-19 19:28N 57°08' W 002°00'2 4.9
2018-Feb-19 19:00N 57°08' W 002°04'0 0.8
2018-Feb-19 18:30N 57°09' W 002°05'0 0.0
2018-Feb-19 17:51N 57°09' W 002°05'0 0.0
2018-Feb-19 17:24N 57°09' W 002°05'0 0.0
2018-Feb-19 16:54N 57°09' W 002°05'0 0.0
2018-Feb-19 16:30N 57°09' W 002°05'0 0.0
2018-Feb-19 16:00N 57°09' W 002°05'0 0.0
2018-Feb-19 15:30N 57°09' W 002°05'0 0.0
2018-Feb-19 14:57N 57°09' W 002°05'0 0.0
2018-Feb-19 14:30N 57°09' W 002°05'0 0.0
2018-Feb-19 13:54N 57°09' W 002°05'0 0.0
2018-Feb-19 13:30N 57°09' W 002°05'0 0.0
2018-Feb-19 13:00N 57°09' W 002°05'0 0.0
2018-Feb-19 12:27N 57°09' W 002°05'0 0.0
2018-Feb-19 11:57N 57°09' W 002°05'0 0.0
2018-Feb-19 11:27N 57°09' W 002°05'0 0.0
2018-Feb-19 10:54N 57°09' W 002°05'0 0.0
2018-Feb-19 10:30N 57°09' W 002°05'0 0.0
2018-Feb-19 09:57N 57°09' W 002°05'0 0.0
2018-Feb-19 09:30N 57°09' W 002°05'0 0.0
2018-Feb-19 08:54N 57°09' W 002°05'0 0.0
2018-Feb-19 08:15N 57°09' W 002°05'0 0.0
2018-Feb-19 08:00N 57°09' W 002°05'0 0.0
2018-Feb-19 07:27N 57°09' W 002°05'0 0.0
2018-Feb-19 07:00N 57°09' W 002°05'0 0.0
2018-Feb-19 06:30N 57°09' W 002°05'0 0.0
2018-Feb-19 05:36N 57°09' W 002°05'0 0.0
2018-Feb-19 05:09N 57°09' W 002°05'0 0.0
2018-Feb-19 04:57N 57°09' W 002°05'0 0.0
2018-Feb-19 04:27N 57°09' W 002°05'0 0.0
2018-Feb-19 03:51N 57°09' W 002°05'0 0.0
2018-Feb-19 03:09N 57°09' W 002°05'0 0.0
2018-Feb-19 02:51N 57°09' W 002°05'0 0.0
2018-Feb-19 02:30N 57°09' W 002°05'0 0.0
2018-Feb-19 01:12N 57°09' W 002°05'0 0.0
2018-Feb-19 01:00N 57°09' W 002°05'0 0.0
2018-Feb-19 00:30N 57°09' W 002°05'0 0.0
2018-Feb-18 23:48N 57°09' W 002°05'0 0.0
2018-Feb-18 23:21N 57°09' W 002°05'0 0.0
2018-Feb-18 22:57N 57°09' W 002°05'0 0.0
2018-Feb-18 22:30N 57°09' W 002°05'0 0.0
2018-Feb-18 21:51N 57°09' W 002°05'0 0.0
2018-Feb-18 21:30N 57°09' W 002°05'0 0.0
2018-Feb-18 20:54N 57°09' W 002°05'0 0.0
2018-Feb-18 20:30N 57°09' W 002°05'0 0.0
2018-Feb-18 19:57N 57°09' W 002°05'0 0.0
2018-Feb-18 19:30N 57°09' W 002°05'0 0.0
2018-Feb-18 18:57N 57°09' W 002°05'0 0.0
2018-Feb-18 18:27N 57°09' W 002°05'0 0.0
2018-Feb-18 17:51N 57°09' W 002°05'0 0.0
2018-Feb-18 17:27N 57°09' W 002°05'0 0.0
2018-Feb-18 17:00N 57°09' W 002°05'0 0.0
2018-Feb-18 16:27N 57°09' W 002°05'0 0.0
2018-Feb-18 15:54N 57°09' W 002°05'0 0.0
2018-Feb-18 15:30N 57°09' W 002°05'0 0.0
2018-Feb-18 15:00N 57°09' W 002°05'0 0.0
2018-Feb-18 14:30N 57°09' W 002°05'0 0.0
2018-Feb-18 14:00N 57°09' W 002°05'0 0.0
2018-Feb-18 13:30N 57°09' W 002°05'0 0.0
2018-Feb-18 13:00N 57°09' W 002°05'0 0.0
2018-Feb-18 12:30N 57°09' W 002°05'0 0.0
2018-Feb-18 12:00N 57°09' W 002°05'0 0.0
2018-Feb-18 11:30N 57°09' W 002°05'0 0.0
2018-Feb-18 11:00N 57°09' W 002°05'0 0.0
2018-Feb-18 10:27N 57°09' W 002°05'0 0.0
2018-Feb-18 09:57N 57°09' W 002°05'0 0.0
2018-Feb-18 09:27N 57°09' W 002°05'0 0.0
2018-Feb-18 09:00N 57°09' W 002°05'0 0.0
2018-Feb-18 08:30N 57°09' W 002°05'0 0.0
2018-Feb-18 07:57N 57°09' W 002°05'0 0.0
2018-Feb-18 07:27N 57°09' W 002°05'0 0.0
2018-Feb-18 07:00N 57°09' W 002°05'0 0.0
2018-Feb-18 06:30N 57°09' W 002°05'0 0.0
2018-Feb-18 06:00N 57°09' W 002°05'0 0.0
2018-Feb-18 05:30N 57°09' W 002°05'0 0.0
2018-Feb-18 05:00N 57°09' W 002°05'0 0.0
2018-Feb-18 04:27N 57°09' W 002°05'0 0.0
2018-Feb-18 03:57N 57°09' W 002°05'0 0.0
2018-Feb-18 03:24N 57°09' W 002°05'0 0.0
2018-Feb-18 02:54N 57°09' W 002°05'0 0.0
2018-Feb-18 02:27N 57°09' W 002°05'0 0.0
2018-Feb-18 02:00N 57°09' W 002°05'0 0.0
2018-Feb-18 01:24N 57°09' W 002°05'0 0.0
2018-Feb-18 00:57N 57°09' W 002°05'0 0.0
2018-Feb-18 00:30N 57°09' W 002°05'0 0.0
2018-Feb-18 00:00N 57°09' W 002°05'0 0.0
2018-Feb-17 23:30N 57°09' W 002°05'0 0.0
2018-Feb-17 23:00N 57°09' W 002°05'0 0.0
2018-Feb-17 22:27N 57°09' W 002°05'0 0.0
2018-Feb-17 22:00N 57°09' W 002°05'0 0.0
2018-Feb-17 21:30N 57°09' W 002°05'0 0.0
2018-Feb-17 21:00N 57°09' W 002°05'0 0.0
2018-Feb-17 20:27N 57°09' W 002°05'0 0.0
2018-Feb-17 19:57N 57°09' W 002°05'0 0.0
2018-Feb-17 19:30N 57°09' W 002°05'0 0.0
2018-Feb-17 19:00N 57°09' W 002°05'0 0.0
2018-Feb-17 18:27N 57°09' W 002°05'0 0.0
2018-Feb-17 17:54N 57°09' W 002°05'0 0.0
2018-Feb-17 17:30N 57°09' W 002°05'0 0.0
2018-Feb-17 17:00N 57°09' W 002°05'0 0.0
2018-Feb-17 16:30N 57°09' W 002°05'0 0.0
2018-Feb-17 16:00N 57°09' W 002°05'0 0.0
2018-Feb-17 15:30N 57°09' W 002°05'0 0.0
2018-Feb-17 14:57N 57°09' W 002°05'0 0.0
2018-Feb-17 14:27N 57°09' W 002°05'0 0.0
2018-Feb-17 13:57N 57°09' W 002°05'0 0.0
2018-Feb-17 13:27N 57°09' W 002°05'0 0.0
2018-Feb-17 13:00N 57°09' W 002°05'0 0.0
2018-Feb-17 12:30N 57°09' W 002°05'0 0.0
2018-Feb-17 12:00N 57°09' W 002°05'0 0.0
2018-Feb-17 11:27N 57°09' W 002°05'0 0.0
2018-Feb-17 10:54N 57°09' W 002°05'0 0.0
2018-Feb-17 10:30N 57°09' W 002°05'0 0.0
2018-Feb-17 10:00N 57°09' W 002°05'0 0.0
2018-Feb-17 09:30N 57°09' W 002°05'0 0.0
2018-Feb-17 09:00N 57°09' W 002°05'0 0.0
2018-Feb-17 08:30N 57°09' W 002°05'0 0.0
2018-Feb-17 07:57N 57°09' W 002°05'0 0.0
2018-Feb-17 07:15N 57°09' W 002°05'0 0.0
2018-Feb-17 06:57N 57°09' W 002°05'0 0.0
2018-Feb-17 06:27N 57°09' W 002°05'0 0.0
2018-Feb-17 06:00N 57°09' W 002°05'0 0.0
2018-Feb-17 05:30N 57°09' W 002°05'0 0.0
2018-Feb-17 05:00N 57°09' W 002°05'0 0.0
2018-Feb-17 04:30N 57°09' W 002°05'0 0.0
2018-Feb-17 04:00N 57°09' W 002°05'0 0.0
2018-Feb-17 03:27N 57°09' W 002°05'0 0.0
2018-Feb-17 03:00N 57°09' W 002°05'0 0.0
2018-Feb-17 02:27N 57°09' W 002°05'0 0.0
2018-Feb-17 01:57N 57°09' W 002°05'0 0.0
2018-Feb-17 01:30N 57°09' W 002°05'0 0.0
2018-Feb-17 01:00N 57°09' W 002°05'0 0.0
2018-Feb-17 00:27N 57°09' W 002°05'0 0.0
2018-Feb-16 23:57N 57°09' W 002°05'0 0.0
2018-Feb-16 23:30N 57°09' W 002°05'0 0.0
2018-Feb-16 22:42N 57°09' W 002°05'0 0.0
2018-Feb-16 22:27N 57°09' W 002°05'0 0.0
2018-Feb-16 21:57N 57°09' W 002°05'0 0.0
2018-Feb-16 21:30N 57°09' W 002°05'0 0.0
2018-Feb-16 21:00N 57°09' W 002°05'0 0.1
2018-Feb-16 20:30N 57°09' W 002°05'1 2.5
2018-Feb-16 19:59N 57°09' W 002°03'3 6.4
2018-Feb-16 19:30N 57°07' W 001°59'611.5
2018-Feb-16 18:58N 57°01' W 001°54'14410.3
2018-Feb-16 05:06N 54°52' W 000°03'1 9.0
2018-Feb-16 05:00N 54°51' W 000°03'5 8.9
2018-Feb-16 04:29N 54°47' E 000°01'4 8.9
2018-Feb-16 04:00N 54°43' E 000°04'4 8.8
2018-Feb-16 03:30N 54°39' E 000°07'6 8.9
2018-Feb-16 02:51N 54°34' E 000°12'4 9.3
2018-Feb-16 02:27N 54°30' E 000°15'4 9.5
2018-Feb-16 02:00N 54°27' E 000°18'5 9.8
2018-Feb-16 01:30N 54°22' E 000°21'510.3
2018-Feb-16 01:00N 54°18' E 000°25'510.6
2018-Feb-16 00:30N 54°13' E 000°29'5710.9
2018-Feb-15 19:18N 53°21' E 001°09'3 8.7
2018-Feb-15 19:00N 53°19' E 001°12'4 8.7
2018-Feb-15 18:30N 53°16' E 001°17'4 8.5
2018-Feb-15 18:01N 53°13' E 001°21'4 8.8
2018-Feb-15 17:30N 53°10' E 001°26'5 9.2
2018-Feb-15 17:00N 53°06' E 001°32'5 9.8
2018-Feb-15 16:29N 53°03' E 001°37'510.0
2018-Feb-15 16:01N 52°60' E 001°44'510.8
2018-Feb-15 15:30N 52°57' E 001°52'611.1
2018-Feb-15 15:00N 52°54' E 001°59'  
Track history (hours):
 
Tides and Currents Weather Stations Pressure Air Temp Water Temp Dewpoint Dewpoint Depression Visibility Wind Speed Wind Dir Waves Ship Positions

Laida

Last reported at 2018-Feb-25 14:25 UTC. Time now 2018-Feb-25 18:00 UTC.
Position N 38°17' W 009°58'.

Length 100 m; draft 6.2 m.

Type: Cargo ship. MMSI: 224509000.

Date/timePositionNaut miles runAvg speedWind from/ knotsBaromVisibWave heightAir tempDewpointWater temp
2018-Feb-25 14:25N 38°17' W 009°58'410.1
2018-Feb-25 14:00N 38°21' W 009°59'510.3
2018-Feb-25 13:30N 38°26' W 010°01'510.2
2018-Feb-25 12:59N 38°31' W 010°02'1110.1
2018-Feb-25 11:55N 38°42' W 010°05'1210.3
2018-Feb-25 10:47N 38°54' W 010°05'310.6
2018-Feb-25 10:31N 38°56' W 010°05'611.0
2018-Feb-25 10:00N 39°02' W 010°05'610.8
2018-Feb-25 09:29N 39°08' W 010°05'510.7
2018-Feb-25 09:01N 39°13' W 010°05'611.1
2018-Feb-25 08:30N 39°18' W 010°05'  
2018-Feb-22 05:08N 49°58' W 002°57'212.2
2018-Feb-22 04:57N 49°59' W 002°54'5010.1
2018-Feb-22 00:03N 50°13' W 001°40'1 7.5
2018-Feb-21 23:59N 50°13' W 001°39'4 7.4
2018-Feb-21 23:30N 50°14' W 001°34'4 7.4
2018-Feb-21 22:59N 50°15' W 001°28'4610.5
2018-Feb-21 18:38N 50°28' W 000°20'612.0
2018-Feb-21 18:05N 50°30' W 000°10'112.0
2018-Feb-21 17:59N 50°31' W 000°08'611.9
2018-Feb-21 17:30N 50°32' E 000°00'611.6
2018-Feb-21 16:59N 50°34' E 000°09'611.4
2018-Feb-21 16:29N 50°36' E 000°18'511.1
2018-Feb-21 16:01N 50°37' E 000°26'510.6
2018-Feb-21 15:30N 50°39' E 000°34'510.2
2018-Feb-21 15:00N 50°42' E 000°40'5 9.8
2018-Feb-21 14:31N 50°44' E 000°47'5 9.6
2018-Feb-21 14:00N 50°47' E 000°53'5 9.5
2018-Feb-21 13:30N 50°50' E 000°59'1110.0
2018-Feb-21 12:22N 50°57' E 001°13'911.7
2018-Feb-21 11:37N 51°03' E 001°24'112.7
2018-Feb-21 11:30N 51°03' E 001°26'1528.9
2018-Feb-21 10:59N 51°13' E 001°44'2 3.1
2018-Feb-21 10:30N 51°12' E 001°42'612.5
2018-Feb-21 10:00N 51°17' E 001°48'612.0
2018-Feb-21 09:30N 51°23' E 001°52'611.1
2018-Feb-21 09:00N 51°28' E 001°56'510.7
2018-Feb-21 08:30N 51°32' E 002°02'510.1
2018-Feb-21 07:59N 51°36' E 002°07'5 9.7
2018-Feb-21 07:28N 51°39' E 002°12'73 9.5
2018-Feb-20 23:48N 52°52' E 002°01'310.7
2018-Feb-20 23:30N 52°54' E 001°58'611.6
2018-Feb-20 23:00N 52°57' E 001°50'611.7
2018-Feb-20 22:30N 53°01' E 001°42'611.9
2018-Feb-20 22:00N 53°04' E 001°34'611.9
2018-Feb-20 21:30N 53°08' E 001°27'611.6
2018-Feb-20 21:00N 53°12' E 001°19'25210.3
2018-Feb-19 20:36N 56°58' W 001°53'1 9.1
2018-Feb-19 20:27N 56°60' W 001°54'4 9.1
2018-Feb-19 19:58N 57°04' W 001°57'5 9.1
2018-Feb-19 19:28N 57°08' W 002°00'2 4.9
2018-Feb-19 19:00N 57°08' W 002°04'0 0.8
2018-Feb-19 18:30N 57°09' W 002°05'0 0.0
2018-Feb-19 17:51N 57°09' W 002°05'0 0.0
2018-Feb-19 17:24N 57°09' W 002°05'0 0.0
2018-Feb-19 16:54N 57°09' W 002°05'0 0.0
2018-Feb-19 16:30N 57°09' W 002°05'0 0.0
2018-Feb-19 16:00N 57°09' W 002°05'0 0.0
2018-Feb-19 15:30N 57°09' W 002°05'0 0.0
2018-Feb-19 14:57N 57°09' W 002°05'0 0.0
2018-Feb-19 14:30N 57°09' W 002°05'0 0.0
2018-Feb-19 13:54N 57°09' W 002°05'0 0.0
2018-Feb-19 13:30N 57°09' W 002°05'0 0.0
2018-Feb-19 13:00N 57°09' W 002°05'0 0.0
2018-Feb-19 12:27N 57°09' W 002°05'0 0.0
2018-Feb-19 11:57N 57°09' W 002°05'0 0.0
2018-Feb-19 11:27N 57°09' W 002°05'0 0.0
2018-Feb-19 10:54N 57°09' W 002°05'0 0.0
2018-Feb-19 10:30N 57°09' W 002°05'0 0.0
2018-Feb-19 09:57N 57°09' W 002°05'0 0.0
2018-Feb-19 09:30N 57°09' W 002°05'0 0.0
2018-Feb-19 08:54N 57°09' W 002°05'0 0.0
2018-Feb-19 08:15N 57°09' W 002°05'0 0.0
2018-Feb-19 08:00N 57°09' W 002°05'0 0.0
2018-Feb-19 07:27N 57°09' W 002°05'0 0.0
2018-Feb-19 07:00N 57°09' W 002°05'0 0.0
2018-Feb-19 06:30N 57°09' W 002°05'0 0.0
2018-Feb-19 05:36N 57°09' W 002°05'0 0.0
2018-Feb-19 05:09N 57°09' W 002°05'0 0.0
2018-Feb-19 04:57N 57°09' W 002°05'0 0.0
2018-Feb-19 04:27N 57°09' W 002°05'0 0.0
2018-Feb-19 03:51N 57°09' W 002°05'0 0.0
2018-Feb-19 03:09N 57°09' W 002°05'0 0.0
2018-Feb-19 02:51N 57°09' W 002°05'0 0.0
2018-Feb-19 02:30N 57°09' W 002°05'0 0.0
2018-Feb-19 01:12N 57°09' W 002°05'0 0.0
2018-Feb-19 01:00N 57°09' W 002°05'0 0.0
2018-Feb-19 00:30N 57°09' W 002°05'0 0.0
2018-Feb-18 23:48N 57°09' W 002°05'0 0.0
2018-Feb-18 23:21N 57°09' W 002°05'0 0.0
2018-Feb-18 22:57N 57°09' W 002°05'0 0.0
2018-Feb-18 22:30N 57°09' W 002°05'0 0.0
2018-Feb-18 21:51N 57°09' W 002°05'0 0.0
2018-Feb-18 21:30N 57°09' W 002°05'0 0.0
2018-Feb-18 20:54N 57°09' W 002°05'0 0.0
2018-Feb-18 20:30N 57°09' W 002°05'0 0.0
2018-Feb-18 19:57N 57°09' W 002°05'0 0.0
2018-Feb-18 19:30N 57°09' W 002°05'0 0.0
2018-Feb-18 18:57N 57°09' W 002°05'0 0.0
2018-Feb-18 18:27N 57°09' W 002°05'0 0.0
2018-Feb-18 17:51N 57°09' W 002°05'0 0.0
2018-Feb-18 17:27N 57°09' W 002°05'0 0.0
2018-Feb-18 17:00N 57°09' W 002°05'0 0.0
2018-Feb-18 16:27N 57°09' W 002°05'0 0.0
2018-Feb-18 15:54N 57°09' W 002°05'0 0.0
2018-Feb-18 15:30N 57°09' W 002°05'0 0.0
2018-Feb-18 15:00N 57°09' W 002°05'0 0.0
2018-Feb-18 14:30N 57°09' W 002°05'0 0.0
2018-Feb-18 14:00N 57°09' W 002°05'0 0.0
2018-Feb-18 13:30N 57°09' W 002°05'0 0.0
2018-Feb-18 13:00N 57°09' W 002°05'0 0.0
2018-Feb-18 12:30N 57°09' W 002°05'0 0.0
2018-Feb-18 12:00N 57°09' W 002°05'0 0.0
2018-Feb-18 11:30N 57°09' W 002°05'0 0.0
2018-Feb-18 11:00N 57°09' W 002°05'0 0.0
2018-Feb-18 10:27N 57°09' W 002°05'0 0.0
2018-Feb-18 09:57N 57°09' W 002°05'0 0.0
2018-Feb-18 09:27N 57°09' W 002°05'0 0.0
2018-Feb-18 09:00N 57°09' W 002°05'0 0.0
2018-Feb-18 08:30N 57°09' W 002°05'0 0.0
2018-Feb-18 07:57N 57°09' W 002°05'0 0.0
2018-Feb-18 07:27N 57°09' W 002°05'0 0.0
2018-Feb-18 07:00N 57°09' W 002°05'0 0.0
2018-Feb-18 06:30N 57°09' W 002°05'0 0.0
2018-Feb-18 06:00N 57°09' W 002°05'0 0.0
2018-Feb-18 05:30N 57°09' W 002°05'0 0.0
2018-Feb-18 05:00N 57°09' W 002°05'0 0.0
2018-Feb-18 04:27N 57°09' W 002°05'0 0.0
2018-Feb-18 03:57N 57°09' W 002°05'0 0.0
2018-Feb-18 03:24N 57°09' W 002°05'0 0.0
2018-Feb-18 02:54N 57°09' W 002°05'0 0.0
2018-Feb-18 02:27N 57°09' W 002°05'0 0.0
2018-Feb-18 02:00N 57°09' W 002°05'0 0.0
2018-Feb-18 01:24N 57°09' W 002°05'0 0.0
2018-Feb-18 00:57N 57°09' W 002°05'0 0.0
2018-Feb-18 00:30N 57°09' W 002°05'0 0.0
2018-Feb-18 00:00N 57°09' W 002°05'0 0.0
2018-Feb-17 23:30N 57°09' W 002°05'0 0.0
2018-Feb-17 23:00N 57°09' W 002°05'0 0.0
2018-Feb-17 22:27N 57°09' W 002°05'0 0.0
2018-Feb-17 22:00N 57°09' W 002°05'0 0.0
2018-Feb-17 21:30N 57°09' W 002°05'0 0.0
2018-Feb-17 21:00N 57°09' W 002°05'0 0.0
2018-Feb-17 20:27N 57°09' W 002°05'0 0.0
2018-Feb-17 19:57N 57°09' W 002°05'0 0.0
2018-Feb-17 19:30N 57°09' W 002°05'0 0.0
2018-Feb-17 19:00N 57°09' W 002°05'0 0.0
2018-Feb-17 18:27N 57°09' W 002°05'0 0.0
2018-Feb-17 17:54N 57°09' W 002°05'0 0.0
2018-Feb-17 17:30N 57°09' W 002°05'0 0.0
2018-Feb-17 17:00N 57°09' W 002°05'0 0.0
2018-Feb-17 16:30N 57°09' W 002°05'0 0.0
2018-Feb-17 16:00N 57°09' W 002°05'0 0.0
2018-Feb-17 15:30N 57°09' W 002°05'0 0.0
2018-Feb-17 14:57N 57°09' W 002°05'0 0.0
2018-Feb-17 14:27N 57°09' W 002°05'0 0.0
2018-Feb-17 13:57N 57°09' W 002°05'0 0.0
2018-Feb-17 13:27N 57°09' W 002°05'0 0.0
2018-Feb-17 13:00N 57°09' W 002°05'0 0.0
2018-Feb-17 12:30N 57°09' W 002°05'0 0.0
2018-Feb-17 12:00N 57°09' W 002°05'0 0.0
2018-Feb-17 11:27N 57°09' W 002°05'0 0.0
2018-Feb-17 10:54N 57°09' W 002°05'0 0.0
2018-Feb-17 10:30N 57°09' W 002°05'0 0.0
2018-Feb-17 10:00N 57°09' W 002°05'0 0.0
2018-Feb-17 09:30N 57°09' W 002°05'0 0.0
2018-Feb-17 09:00N 57°09' W 002°05'0 0.0
2018-Feb-17 08:30N 57°09' W 002°05'0 0.0
2018-Feb-17 07:57N 57°09' W 002°05'0 0.0
2018-Feb-17 07:15N 57°09' W 002°05'0 0.0
2018-Feb-17 06:57N 57°09' W 002°05'0 0.0
2018-Feb-17 06:27N 57°09' W 002°05'0 0.0
2018-Feb-17 06:00N 57°09' W 002°05'0 0.0
2018-Feb-17 05:30N 57°09' W 002°05'0 0.0
2018-Feb-17 05:00N 57°09' W 002°05'0 0.0
2018-Feb-17 04:30N 57°09' W 002°05'0 0.0
2018-Feb-17 04:00N 57°09' W 002°05'0 0.0
2018-Feb-17 03:27N 57°09' W 002°05'0 0.0
2018-Feb-17 03:00N 57°09' W 002°05'0 0.0
2018-Feb-17 02:27N 57°09' W 002°05'0 0.0
2018-Feb-17 01:57N 57°09' W 002°05'0 0.0
2018-Feb-17 01:30N 57°09' W 002°05'0 0.0
2018-Feb-17 01:00N 57°09' W 002°05'0 0.0
2018-Feb-17 00:27N 57°09' W 002°05'0 0.0
2018-Feb-16 23:57N 57°09' W 002°05'0 0.0
2018-Feb-16 23:30N 57°09' W 002°05'0 0.0
2018-Feb-16 22:42N 57°09' W 002°05'0 0.0
2018-Feb-16 22:27N 57°09' W 002°05'0 0.0
2018-Feb-16 21:57N 57°09' W 002°05'0 0.0
2018-Feb-16 21:30N 57°09' W 002°05'0 0.0
2018-Feb-16 21:00N 57°09' W 002°05'0 0.1
2018-Feb-16 20:30N 57°09' W 002°05'1 2.5
2018-Feb-16 19:59N 57°09' W 002°03'3 6.4
2018-Feb-16 19:30N 57°07' W 001°59'611.5
2018-Feb-16 18:58N 57°01' W 001°54'14410.3
2018-Feb-16 05:06N 54°52' W 000°03'1 9.0
2018-Feb-16 05:00N 54°51' W 000°03'5 8.9
2018-Feb-16 04:29N 54°47' E 000°01'4 8.9
2018-Feb-16 04:00N 54°43' E 000°04'4 8.8
2018-Feb-16 03:30N 54°39' E 000°07'6 8.9
2018-Feb-16 02:51N 54°34' E 000°12'4 9.3
2018-Feb-16 02:27N 54°30' E 000°15'4 9.5
2018-Feb-16 02:00N 54°27' E 000°18'5 9.8
2018-Feb-16 01:30N 54°22' E 000°21'510.3
2018-Feb-16 01:00N 54°18' E 000°25'510.6
2018-Feb-16 00:30N 54°13' E 000°29'5710.9
2018-Feb-15 19:18N 53°21' E 001°09'3 8.7
2018-Feb-15 19:00N 53°19' E 001°12'4 8.7
2018-Feb-15 18:30N 53°16' E 001°17'4 8.5
2018-Feb-15 18:01N 53°13' E 001°21'4 8.8
2018-Feb-15 17:30N 53°10' E 001°26'5 9.2
2018-Feb-15 17:00N 53°06' E 001°32'5 9.8
2018-Feb-15 16:29N 53°03' E 001°37'510.0
2018-Feb-15 16:01N 52°60' E 001°44'510.8
2018-Feb-15 15:30N 52°57' E 001°52'611.1
2018-Feb-15 15:00N 52°54' E 001°59'  

Dump ship's entire track history